Аэропорт: Адлер. Сочи

ICAO: URSS

METAR:
2018/11/19 10:00
URSS 191000Z 21002MPS 170V260 9999 NSC 15/03 Q1020 R02/090070 R06/090070 NOSIG RMK R06/19002MPS QFE763
METAR:
2018/11/19 09:22
TAF URSS 190758Z 1909/2009 VRB01MPS 9999 FEW030 SCT100 
      BECMG 1915/1916 05006MPS SCT040CB OVC100 
      TEMPO 1918/2006 VRB07G12MPS -TSRA 
     FM200600 14007MPS 7000 -SHRA BKN030CB OVC100 
      TEMPO 2006/2009 VRB09G15MPS 3100 -TSRA BKN011 BKN030CB OVC100